sensor_id;sensor_type;location;lat;lon;timestamp;temperature;humidity
21207;DHT22;10761;48.532;8.026;2023-06-04T00:02:26;15.10;1.00
21207;DHT22;10761;48.532;8.026;2023-06-04T00:04:52;15.00;58.90
21207;DHT22;10761;48.532;8.026;2023-06-04T00:07:18;15.00;1.00
21207;DHT22;10761;48.532;8.026;2023-06-04T00:09:43;14.90;99.90
21207;DHT22;10761;48.532;8.026;2023-06-04T00:12:12;14.90;99.90
21207;DHT22;10761;48.532;8.026;2023-06-04T00:14:38;14.80;99.90
21207;DHT22;10761;48.532;8.026;2023-06-04T00:17:04;14.80;1.00
21207;DHT22;10761;48.532;8.026;2023-06-04T00:19:29;14.70;1.00
21207;DHT22;10761;48.532;8.026;2023-06-04T00:21:55;14.80;99.90
21207;DHT22;10761;48.532;8.026;2023-06-04T00:24:21;14.70;99.90
21207;DHT22;10761;48.532;8.026;2023-06-04T00:26:46;14.60;1.10
21207;DHT22;10761;48.532;8.026;2023-06-04T00:29:12;14.60;1.00
21207;DHT22;10761;48.532;8.026;2023-06-04T00:31:38;14.50;1.00
21207;DHT22;10761;48.532;8.026;2023-06-04T00:34:04;14.40;95.20
21207;DHT22;10761;48.532;8.026;2023-06-04T00:36:29;14.30;1.00
21207;DHT22;10761;48.532;8.026;2023-06-04T00:38:55;14.30;99.90
21207;DHT22;10761;48.532;8.026;2023-06-04T00:41:21;14.30;1.00
21207;DHT22;10761;48.532;8.026;2023-06-04T00:43:46;14.20;99.90
21207;DHT22;10761;48.532;8.026;2023-06-04T00:46:27;14.10;1.00
21207;DHT22;10761;48.532;8.026;2023-06-04T00:48:53;14.00;1.00
21207;DHT22;10761;48.532;8.026;2023-06-04T00:51:20;13.90;99.90
21207;DHT22;10761;48.532;8.026;2023-06-04T00:53:46;13.80;1.00
21207;DHT22;10761;48.532;8.026;2023-06-04T00:56:12;13.80;1.00
21207;DHT22;10761;48.532;8.026;2023-06-04T00:58:39;13.70;1.00
21207;DHT22;10761;48.532;8.026;2023-06-04T01:01:09;13.70;99.90
21207;DHT22;10761;48.532;8.026;2023-06-04T01:03:38;13.70;1.00
21207;DHT22;10761;48.532;8.026;2023-06-04T01:06:18;13.60;1.00
21207;DHT22;10761;48.532;8.026;2023-06-04T01:08:50;13.70;1.00
21207;DHT22;10761;48.532;8.026;2023-06-04T01:11:31;13.80;1.00
21207;DHT22;10761;48.532;8.026;2023-06-04T01:13:56;13.70;1.00
21207;DHT22;10761;48.532;8.026;2023-06-04T01:16:22;13.60;99.90
21207;DHT22;10761;48.532;8.026;2023-06-04T01:18:49;13.60;1.00
21207;DHT22;10761;48.532;8.026;2023-06-04T01:21:16;13.60;1.00
21207;DHT22;10761;48.532;8.026;2023-06-04T01:23:50;13.50;1.00
21207;DHT22;10761;48.532;8.026;2023-06-04T01:26:30;13.50;1.00
21207;DHT22;10761;48.532;8.026;2023-06-04T01:28:58;13.50;1.00
21207;DHT22;10761;48.532;8.026;2023-06-04T01:31:25;13.40;1.00
21207;DHT22;10761;48.532;8.026;2023-06-04T01:33:52;13.30;1.00
21207;DHT22;10761;48.532;8.026;2023-06-04T01:36:18;13.20;1.00
21207;DHT22;10761;48.532;8.026;2023-06-04T01:38:44;13.20;1.00
21207;DHT22;10761;48.532;8.026;2023-06-04T01:41:10;13.30;1.00
21207;DHT22;10761;48.532;8.026;2023-06-04T01:43:36;13.20;1.00
21207;DHT22;10761;48.532;8.026;2023-06-04T01:46:02;13.20;99.90
21207;DHT22;10761;48.532;8.026;2023-06-04T01:48:29;13.10;1.00
21207;DHT22;10761;48.532;8.026;2023-06-04T01:50:55;13.10;99.90
21207;DHT22;10761;48.532;8.026;2023-06-04T01:53:20;13.00;58.60
21207;DHT22;10761;48.532;8.026;2023-06-04T01:55:46;13.00;1.00
21207;DHT22;10761;48.532;8.026;2023-06-04T01:58:17;12.90;1.00
21207;DHT22;10761;48.532;8.026;2023-06-04T02:00:51;12.90;1.00
21207;DHT22;10761;48.532;8.026;2023-06-04T02:03:18;12.90;1.00
21207;DHT22;10761;48.532;8.026;2023-06-04T02:05:44;12.80;1.00
21207;DHT22;10761;48.532;8.026;2023-06-04T02:08:14;12.80;1.00
21207;DHT22;10761;48.532;8.026;2023-06-04T02:10:45;12.80;99.90
21207;DHT22;10761;48.532;8.026;2023-06-04T02:13:12;12.80;99.90
21207;DHT22;10761;48.532;8.026;2023-06-04T02:15:38;12.80;1.00
21207;DHT22;10761;48.532;8.026;2023-06-04T02:18:14;12.70;1.00
21207;DHT22;10761;48.532;8.026;2023-06-04T02:20:41;12.70;99.90
21207;DHT22;10761;48.532;8.026;2023-06-04T02:23:07;12.80;1.00
21207;DHT22;10761;48.532;8.026;2023-06-04T02:25:32;12.70;57.50
21207;DHT22;10761;48.532;8.026;2023-06-04T02:27:58;12.60;99.90
21207;DHT22;10761;48.532;8.026;2023-06-04T02:30:23;12.60;99.90
21207;DHT22;10761;48.532;8.026;2023-06-04T02:32:49;12.50;1.00
21207;DHT22;10761;48.532;8.026;2023-06-04T02:35:16;12.50;16.20
21207;DHT22;10761;48.532;8.026;2023-06-04T02:37:43;12.50;99.90
21207;DHT22;10761;48.532;8.026;2023-06-04T02:40:10;12.40;99.90
21207;DHT22;10761;48.532;8.026;2023-06-04T02:42:35;12.40;99.90
21207;DHT22;10761;48.532;8.026;2023-06-04T02:45:01;12.40;99.90
21207;DHT22;10761;48.532;8.026;2023-06-04T02:47:27;12.40;99.90
21207;DHT22;10761;48.532;8.026;2023-06-04T02:49:53;12.40;99.90
21207;DHT22;10761;48.532;8.026;2023-06-04T02:52:18;12.30;99.90
21207;DHT22;10761;48.532;8.026;2023-06-04T02:54:44;12.30;99.90
21207;DHT22;10761;48.532;8.026;2023-06-04T02:57:09;12.30;1.00
21207;DHT22;10761;48.532;8.026;2023-06-04T02:59:35;12.30;1.00
21207;DHT22;10761;48.532;8.026;2023-06-04T03:02:02;12.20;1.00
21207;DHT22;10761;48.532;8.026;2023-06-04T03:04:27;12.20;1.00
21207;DHT22;10761;48.532;8.026;2023-06-04T03:07:02;12.20;1.00
21207;DHT22;10761;48.532;8.026;2023-06-04T03:09:29;12.30;1.00
21207;DHT22;10761;48.532;8.026;2023-06-04T03:11:58;12.30;1.00
21207;DHT22;10761;48.532;8.026;2023-06-04T03:14:24;12.30;1.00
21207;DHT22;10761;48.532;8.026;2023-06-04T03:16:59;12.30;1.00
21207;DHT22;10761;48.532;8.026;2023-06-04T03:19:27;12.20;1.00
21207;DHT22;10761;48.532;8.026;2023-06-04T03:21:53;12.20;1.00
21207;DHT22;10761;48.532;8.026;2023-06-04T03:24:19;12.20;1.00
21207;DHT22;10761;48.532;8.026;2023-06-04T03:26:45;12.10;1.00
21207;DHT22;10761;48.532;8.026;2023-06-04T03:29:10;12.00;1.00
21207;DHT22;10761;48.532;8.026;2023-06-04T03:31:37;11.90;1.00
21207;DHT22;10761;48.532;8.026;2023-06-04T03:34:02;11.90;1.00
21207;DHT22;10761;48.532;8.026;2023-06-04T03:36:30;11.80;1.00
21207;DHT22;10761;48.532;8.026;2023-06-04T03:38:57;11.80;1.00
21207;DHT22;10761;48.532;8.026;2023-06-04T03:41:23;11.80;1.00
21207;DHT22;10761;48.532;8.026;2023-06-04T03:43:48;11.80;19.10
21207;DHT22;10761;48.532;8.026;2023-06-04T03:46:14;11.80;28.10
21207;DHT22;10761;48.532;8.026;2023-06-04T03:48:41;11.80;1.00
21207;DHT22;10761;48.532;8.026;2023-06-04T03:51:07;11.80;1.00
21207;DHT22;10761;48.532;8.026;2023-06-04T03:53:33;11.80;1.00
21207;DHT22;10761;48.532;8.026;2023-06-04T03:55:58;11.80;1.00
21207;DHT22;10761;48.532;8.026;2023-06-04T03:58:24;11.80;1.00
21207;DHT22;10761;48.532;8.026;2023-06-04T04:00:49;11.80;1.00
21207;DHT22;10761;48.532;8.026;2023-06-04T04:03:15;11.90;4.20
21207;DHT22;10761;48.532;8.026;2023-06-04T04:05:40;12.00;1.00
21207;DHT22;10761;48.532;8.026;2023-06-04T04:08:06;12.00;1.00
21207;DHT22;10761;48.532;8.026;2023-06-04T04:10:34;12.00;1.00
21207;DHT22;10761;48.532;8.026;2023-06-04T04:12:59;12.10;1.00
21207;DHT22;10761;48.532;8.026;2023-06-04T04:15:25;12.20;1.00
21207;DHT22;10761;48.532;8.026;2023-06-04T04:17:51;12.20;1.00
21207;DHT22;10761;48.532;8.026;2023-06-04T04:20:16;12.30;1.00
21207;DHT22;10761;48.532;8.026;2023-06-04T04:22:43;12.40;1.00
21207;DHT22;10761;48.532;8.026;2023-06-04T04:25:09;12.50;1.00
21207;DHT22;10761;48.532;8.026;2023-06-04T04:27:34;12.50;1.00
21207;DHT22;10761;48.532;8.026;2023-06-04T04:30:05;12.50;1.00
21207;DHT22;10761;48.532;8.026;2023-06-04T04:32:31;12.60;1.00
21207;DHT22;10761;48.532;8.026;2023-06-04T04:34:57;12.70;1.00
21207;DHT22;10761;48.532;8.026;2023-06-04T04:37:22;12.70;1.00
21207;DHT22;10761;48.532;8.026;2023-06-04T04:39:48;12.80;1.00
21207;DHT22;10761;48.532;8.026;2023-06-04T04:42:18;12.90;1.00
21207;DHT22;10761;48.532;8.026;2023-06-04T04:44:44;13.00;1.00
21207;DHT22;10761;48.532;8.026;2023-06-04T04:47:15;13.10;1.00
21207;DHT22;10761;48.532;8.026;2023-06-04T04:49:41;13.20;1.00
21207;DHT22;10761;48.532;8.026;2023-06-04T04:52:07;13.30;1.00
21207;DHT22;10761;48.532;8.026;2023-06-04T04:54:33;13.40;1.00
21207;DHT22;10761;48.532;8.026;2023-06-04T04:56:58;13.60;1.00
21207;DHT22;10761;48.532;8.026;2023-06-04T04:59:24;13.80;1.00
21207;DHT22;10761;48.532;8.026;2023-06-04T05:01:49;13.90;99.90
21207;DHT22;10761;48.532;8.026;2023-06-04T05:04:15;14.10;99.90
21207;DHT22;10761;48.532;8.026;2023-06-04T05:06:41;14.30;99.90
21207;DHT22;10761;48.532;8.026;2023-06-04T05:09:06;14.40;99.90
21207;DHT22;10761;48.532;8.026;2023-06-04T05:11:32;14.60;63.80
21207;DHT22;10761;48.532;8.026;2023-06-04T05:13:58;14.70;1.00
21207;DHT22;10761;48.532;8.026;2023-06-04T05:16:24;14.90;1.00
21207;DHT22;10761;48.532;8.026;2023-06-04T05:18:50;15.00;1.00
21207;DHT22;10761;48.532;8.026;2023-06-04T05:21:17;15.10;1.00
21207;DHT22;10761;48.532;8.026;2023-06-04T05:23:43;15.30;1.00
21207;DHT22;10761;48.532;8.026;2023-06-04T05:26:13;15.20;1.00
21207;DHT22;10761;48.532;8.026;2023-06-04T05:28:39;15.30;1.00
21207;DHT22;10761;48.532;8.026;2023-06-04T05:31:08;15.40;99.90
21207;DHT22;10761;48.532;8.026;2023-06-04T05:33:34;15.40;99.90
21207;DHT22;10761;48.532;8.026;2023-06-04T05:36:00;15.40;99.90
21207;DHT22;10761;48.532;8.026;2023-06-04T05:38:26;15.50;1.00
21207;DHT22;10761;48.532;8.026;2023-06-04T05:40:53;15.70;99.90
21207;DHT22;10761;48.532;8.026;2023-06-04T05:43:19;15.90;99.90
21207;DHT22;10761;48.532;8.026;2023-06-04T05:45:45;16.10;1.00
21207;DHT22;10761;48.532;8.026;2023-06-04T05:48:11;16.40;1.00
21207;DHT22;10761;48.532;8.026;2023-06-04T05:50:37;16.60;1.00
21207;DHT22;10761;48.532;8.026;2023-06-04T05:53:03;16.90;1.00
21207;DHT22;10761;48.532;8.026;2023-06-04T05:55:28;17.20;1.00
21207;DHT22;10761;48.532;8.026;2023-06-04T05:57:55;17.20;99.90
21207;DHT22;10761;48.532;8.026;2023-06-04T06:00:21;17.20;99.90
21207;DHT22;10761;48.532;8.026;2023-06-04T06:02:49;17.30;99.90
21207;DHT22;10761;48.532;8.026;2023-06-04T06:05:16;17.30;99.90
21207;DHT22;10761;48.532;8.026;2023-06-04T06:07:41;17.40;99.90
21207;DHT22;10761;48.532;8.026;2023-06-04T06:10:08;17.50;99.90
21207;DHT22;10761;48.532;8.026;2023-06-04T06:12:34;17.80;99.90
21207;DHT22;10761;48.532;8.026;2023-06-04T06:15:00;18.00;86.00
21207;DHT22;10761;48.532;8.026;2023-06-04T06:17:25;18.20;1.00
21207;DHT22;10761;48.532;8.026;2023-06-04T06:19:54;18.30;1.00
21207;DHT22;10761;48.532;8.026;2023-06-04T06:22:19;18.40;1.00
21207;DHT22;10761;48.532;8.026;2023-06-04T06:24:45;18.70;1.00
21207;DHT22;10761;48.532;8.026;2023-06-04T06:27:14;18.80;1.00
21207;DHT22;10761;48.532;8.026;2023-06-04T06:29:40;18.80;1.00
21207;DHT22;10761;48.532;8.026;2023-06-04T06:32:07;18.70;1.00
21207;DHT22;10761;48.532;8.026;2023-06-04T06:34:33;19.10;1.00
21207;DHT22;10761;48.532;8.026;2023-06-04T06:36:58;19.10;1.00
21207;DHT22;10761;48.532;8.026;2023-06-04T06:39:24;18.70;1.00
21207;DHT22;10761;48.532;8.026;2023-06-04T06:41:49;18.90;1.00
21207;DHT22;10761;48.532;8.026;2023-06-04T06:44:15;19.30;1.00
21207;DHT22;10761;48.532;8.026;2023-06-04T06:46:41;19.50;1.00
21207;DHT22;10761;48.532;8.026;2023-06-04T06:49:06;20.00;1.00
21207;DHT22;10761;48.532;8.026;2023-06-04T06:51:32;20.40;1.00
21207;DHT22;10761;48.532;8.026;2023-06-04T06:53:58;20.30;1.00
21207;DHT22;10761;48.532;8.026;2023-06-04T06:56:23;20.30;1.00
21207;DHT22;10761;48.532;8.026;2023-06-04T06:58:49;19.70;1.00
21207;DHT22;10761;48.532;8.026;2023-06-04T07:01:14;19.20;1.00
21207;DHT22;10761;48.532;8.026;2023-06-04T07:03:40;19.50;1.00
21207;DHT22;10761;48.532;8.026;2023-06-04T07:06:06;19.60;1.00
21207;DHT22;10761;48.532;8.026;2023-06-04T07:08:32;19.60;1.00
21207;DHT22;10761;48.532;8.026;2023-06-04T07:10:59;19.90;1.00
21207;DHT22;10761;48.532;8.026;2023-06-04T07:13:24;20.20;1.00
21207;DHT22;10761;48.532;8.026;2023-06-04T07:15:50;20.40;1.00
21207;DHT22;10761;48.532;8.026;2023-06-04T07:18:16;20.40;1.00
21207;DHT22;10761;48.532;8.026;2023-06-04T07:20:42;20.70;1.00
21207;DHT22;10761;48.532;8.026;2023-06-04T07:23:07;20.80;1.00
21207;DHT22;10761;48.532;8.026;2023-06-04T07:25:34;20.00;1.00
21207;DHT22;10761;48.532;8.026;2023-06-04T07:27:59;20.00;1.00
21207;DHT22;10761;48.532;8.026;2023-06-04T07:30:29;20.40;1.00
21207;DHT22;10761;48.532;8.026;2023-06-04T07:32:56;21.00;1.00
21207;DHT22;10761;48.532;8.026;2023-06-04T07:35:21;21.70;1.00
21207;DHT22;10761;48.532;8.026;2023-06-04T07:37:47;22.30;1.00
21207;DHT22;10761;48.532;8.026;2023-06-04T07:40:15;22.50;99.90
21207;DHT22;10761;48.532;8.026;2023-06-04T07:42:42;22.20;99.90
21207;DHT22;10761;48.532;8.026;2023-06-04T07:45:08;22.30;99.90
21207;DHT22;10761;48.532;8.026;2023-06-04T07:47:36;22.20;99.90
21207;DHT22;10761;48.532;8.026;2023-06-04T07:50:02;22.20;1.00
21207;DHT22;10761;48.532;8.026;2023-06-04T07:52:28;22.20;99.90
21207;DHT22;10761;48.532;8.026;2023-06-04T07:54:54;22.00;99.90
21207;DHT22;10761;48.532;8.026;2023-06-04T07:57:19;21.80;99.90
21207;DHT22;10761;48.532;8.026;2023-06-04T07:59:45;21.70;99.90
21207;DHT22;10761;48.532;8.026;2023-06-04T08:02:10;21.60;99.90
21207;DHT22;10761;48.532;8.026;2023-06-04T08:04:36;21.60;99.90
21207;DHT22;10761;48.532;8.026;2023-06-04T08:07:02;21.50;99.90
21207;DHT22;10761;48.532;8.026;2023-06-04T08:09:28;20.70;99.90
21207;DHT22;10761;48.532;8.026;2023-06-04T08:11:53;20.30;99.90
21207;DHT22;10761;48.532;8.026;2023-06-04T08:14:19;20.30;1.00
21207;DHT22;10761;48.532;8.026;2023-06-04T08:16:47;20.30;1.00
21207;DHT22;10761;48.532;8.026;2023-06-04T08:19:12;20.50;1.00
21207;DHT22;10761;48.532;8.026;2023-06-04T08:21:39;21.00;1.00
21207;DHT22;10761;48.532;8.026;2023-06-04T08:24:06;21.30;1.00
21207;DHT22;10761;48.532;8.026;2023-06-04T08:26:31;21.00;99.90
21207;DHT22;10761;48.532;8.026;2023-06-04T08:28:58;20.60;99.90
21207;DHT22;10761;48.532;8.026;2023-06-04T08:31:24;20.70;1.00
21207;DHT22;10761;48.532;8.026;2023-06-04T08:33:49;20.70;1.00
21207;DHT22;10761;48.532;8.026;2023-06-04T08:36:15;20.40;1.00
21207;DHT22;10761;48.532;8.026;2023-06-04T08:38:41;20.50;1.00
21207;DHT22;10761;48.532;8.026;2023-06-04T08:41:30;20.60;1.00
21207;DHT22;10761;48.532;8.026;2023-06-04T08:43:58;20.70;1.00
21207;DHT22;10761;48.532;8.026;2023-06-04T08:46:27;20.60;1.00
21207;DHT22;10761;48.532;8.026;2023-06-04T08:48:54;20.80;1.00
21207;DHT22;10761;48.532;8.026;2023-06-04T08:51:21;21.20;1.00
21207;DHT22;10761;48.532;8.026;2023-06-04T08:53:47;21.50;99.90
21207;DHT22;10761;48.532;8.026;2023-06-04T08:56:16;21.80;99.90
21207;DHT22;10761;48.532;8.026;2023-06-04T08:58:43;21.80;99.90
21207;DHT22;10761;48.532;8.026;2023-06-04T09:01:09;21.50;99.90
21207;DHT22;10761;48.532;8.026;2023-06-04T09:03:37;21.40;99.90
21207;DHT22;10761;48.532;8.026;2023-06-04T09:06:03;21.60;99.90
21207;DHT22;10761;48.532;8.026;2023-06-04T09:08:34;21.80;99.90
21207;DHT22;10761;48.532;8.026;2023-06-04T09:11:04;22.10;99.90
21207;DHT22;10761;48.532;8.026;2023-06-04T09:13:31;22.20;99.90
21207;DHT22;10761;48.532;8.026;2023-06-04T09:16:05;22.70;99.90
21207;DHT22;10761;48.532;8.026;2023-06-04T09:18:31;22.80;99.90
21207;DHT22;10761;48.532;8.026;2023-06-04T09:21:15;23.00;99.90
21207;DHT22;10761;48.532;8.026;2023-06-04T09:23:48;22.90;99.90
21207;DHT22;10761;48.532;8.026;2023-06-04T09:26:14;22.70;99.90
21207;DHT22;10761;48.532;8.026;2023-06-04T09:28:44;22.70;99.90
21207;DHT22;10761;48.532;8.026;2023-06-04T09:31:14;23.00;99.90
21207;DHT22;10761;48.532;8.026;2023-06-04T09:33:59;23.70;99.90
21207;DHT22;10761;48.532;8.026;2023-06-04T09:36:30;24.40;99.90
21207;DHT22;10761;48.532;8.026;2023-06-04T09:38:56;24.80;99.90
21207;DHT22;10761;48.532;8.026;2023-06-04T09:41:22;24.80;99.90
21207;DHT22;10761;48.532;8.026;2023-06-04T09:43:47;25.20;99.90
21207;DHT22;10761;48.532;8.026;2023-06-04T09:46:16;25.00;99.90
21207;DHT22;10761;48.532;8.026;2023-06-04T09:48:43;25.50;99.90
21207;DHT22;10761;48.532;8.026;2023-06-04T09:51:13;25.50;99.90
21207;DHT22;10761;48.532;8.026;2023-06-04T09:53:54;25.60;99.90
21207;DHT22;10761;48.532;8.026;2023-06-04T09:56:20;25.60;99.90
21207;DHT22;10761;48.532;8.026;2023-06-04T09:58:53;25.30;99.90
21207;DHT22;10761;48.532;8.026;2023-06-04T10:01:19;24.80;99.90
21207;DHT22;10761;48.532;8.026;2023-06-04T10:03:47;24.60;99.90
21207;DHT22;10761;48.532;8.026;2023-06-04T10:06:19;25.10;99.90
21207;DHT22;10761;48.532;8.026;2023-06-04T10:08:45;25.80;99.90
21207;DHT22;10761;48.532;8.026;2023-06-04T10:11:12;26.00;99.90
21207;DHT22;10761;48.532;8.026;2023-06-04T10:13:49;25.90;99.90
21207;DHT22;10761;48.532;8.026;2023-06-04T10:16:18;25.70;99.90
21207;DHT22;10761;48.532;8.026;2023-06-04T10:18:45;25.90;99.90
21207;DHT22;10761;48.532;8.026;2023-06-04T10:21:13;26.00;99.90
21207;DHT22;10761;48.532;8.026;2023-06-04T10:23:39;26.00;99.90
21207;DHT22;10761;48.532;8.026;2023-06-04T10:26:06;25.70;99.90
21207;DHT22;10761;48.532;8.026;2023-06-04T10:28:33;25.60;99.90
21207;DHT22;10761;48.532;8.026;2023-06-04T10:30:59;25.90;99.90
21207;DHT22;10761;48.532;8.026;2023-06-04T10:33:25;25.90;99.90
21207;DHT22;10761;48.532;8.026;2023-06-04T10:35:53;25.90;99.90
21207;DHT22;10761;48.532;8.026;2023-06-04T10:38:20;26.20;99.90
21207;DHT22;10761;48.532;8.026;2023-06-04T10:40:47;26.50;99.90
21207;DHT22;10761;48.532;8.026;2023-06-04T10:43:14;27.00;99.90
21207;DHT22;10761;48.532;8.026;2023-06-04T10:45:44;27.00;99.90
21207;DHT22;10761;48.532;8.026;2023-06-04T10:48:11;27.00;99.90
21207;DHT22;10761;48.532;8.026;2023-06-04T10:50:51;27.10;99.90
21207;DHT22;10761;48.532;8.026;2023-06-04T10:53:18;27.30;99.90
21207;DHT22;10761;48.532;8.026;2023-06-04T10:55:48;27.40;99.90
21207;DHT22;10761;48.532;8.026;2023-06-04T10:58:14;27.70;99.90
21207;DHT22;10761;48.532;8.026;2023-06-04T11:00:45;27.80;99.90
21207;DHT22;10761;48.532;8.026;2023-06-04T11:03:13;27.70;99.90
21207;DHT22;10761;48.532;8.026;2023-06-04T11:05:43;28.00;99.90
21207;DHT22;10761;48.532;8.026;2023-06-04T11:08:10;28.20;99.90
21207;DHT22;10761;48.532;8.026;2023-06-04T11:10:43;28.00;99.90
21207;DHT22;10761;48.532;8.026;2023-06-04T11:13:08;28.10;99.90
21207;DHT22;10761;48.532;8.026;2023-06-04T11:15:45;28.10;99.90
21207;DHT22;10761;48.532;8.026;2023-06-04T11:18:14;28.50;99.90
21207;DHT22;10761;48.532;8.026;2023-06-04T11:20:41;28.30;99.90
21207;DHT22;10761;48.532;8.026;2023-06-04T11:23:08;28.40;99.90
21207;DHT22;10761;48.532;8.026;2023-06-04T11:25:33;28.60;99.90
21207;DHT22;10761;48.532;8.026;2023-06-04T11:28:00;28.80;99.90
21207;DHT22;10761;48.532;8.026;2023-06-04T11:30:27;29.20;99.90
21207;DHT22;10761;48.532;8.026;2023-06-04T11:33:03;29.10;99.90
21207;DHT22;10761;48.532;8.026;2023-06-04T11:35:30;29.00;99.90
21207;DHT22;10761;48.532;8.026;2023-06-04T11:37:57;29.00;99.90
21207;DHT22;10761;48.532;8.026;2023-06-04T11:40:24;28.70;99.90
21207;DHT22;10761;48.532;8.026;2023-06-04T11:42:52;28.30;99.90
21207;DHT22;10761;48.532;8.026;2023-06-04T11:45:19;28.30;99.90
21207;DHT22;10761;48.532;8.026;2023-06-04T11:47:58;28.50;99.90
21207;DHT22;10761;48.532;8.026;2023-06-04T11:50:27;28.70;99.90
21207;DHT22;10761;48.532;8.026;2023-06-04T11:52:53;28.80;99.90
21207;DHT22;10761;48.532;8.026;2023-06-04T11:55:19;29.10;99.90
21207;DHT22;10761;48.532;8.026;2023-06-04T11:57:49;29.70;99.90
21207;DHT22;10761;48.532;8.026;2023-06-04T12:00:16;29.70;99.90
21207;DHT22;10761;48.532;8.026;2023-06-04T12:02:53;29.80;94.80
21207;DHT22;10761;48.532;8.026;2023-06-04T12:05:20;29.40;93.20
21207;DHT22;10761;48.532;8.026;2023-06-04T12:07:48;28.90;90.80
21207;DHT22;10761;48.532;8.026;2023-06-04T12:10:19;28.50;93.00
21207;DHT22;10761;48.532;8.026;2023-06-04T12:12:45;28.40;90.10
21207;DHT22;10761;48.532;8.026;2023-06-04T12:15:12;28.50;95.60
21207;DHT22;10761;48.532;8.026;2023-06-04T12:17:52;28.60;94.20
21207;DHT22;10761;48.532;8.026;2023-06-04T12:20:29;28.60;92.50
21207;DHT22;10761;48.532;8.026;2023-06-04T12:22:55;28.80;90.20
21207;DHT22;10761;48.532;8.026;2023-06-04T12:25:25;29.20;55.90
21207;DHT22;10761;48.532;8.026;2023-06-04T12:27:54;29.40;62.70
21207;DHT22;10761;48.532;8.026;2023-06-04T12:30:19;29.60;62.20
21207;DHT22;10761;48.532;8.026;2023-06-04T12:32:45;29.70;56.80
21207;DHT22;10761;48.532;8.026;2023-06-04T12:35:11;29.20;47.20
21207;DHT22;10761;48.532;8.026;2023-06-04T12:37:37;29.60;47.20
21207;DHT22;10761;48.532;8.026;2023-06-04T12:40:03;29.90;52.70
21207;DHT22;10761;48.532;8.026;2023-06-04T12:42:31;30.00;41.70
21207;DHT22;10761;48.532;8.026;2023-06-04T12:44:57;30.30;36.80
21207;DHT22;10761;48.532;8.026;2023-06-04T12:47:23;30.50;36.90
21207;DHT22;10761;48.532;8.026;2023-06-04T12:49:48;30.90;25.60
21207;DHT22;10761;48.532;8.026;2023-06-04T12:52:16;31.00;18.30
21207;DHT22;10761;48.532;8.026;2023-06-04T12:54:45;30.60;18.80
21207;DHT22;10761;48.532;8.026;2023-06-04T12:57:10;30.40;21.60
21207;DHT22;10761;48.532;8.026;2023-06-04T12:59:36;29.70;12.50
21207;DHT22;10761;48.532;8.026;2023-06-04T13:02:02;29.30;18.60
21207;DHT22;10761;48.532;8.026;2023-06-04T13:04:28;29.10;25.90
21207;DHT22;10761;48.532;8.026;2023-06-04T13:06:53;29.10;20.40
21207;DHT22;10761;48.532;8.026;2023-06-04T13:09:24;29.20;21.90
21207;DHT22;10761;48.532;8.026;2023-06-04T13:11:51;29.70;18.30
21207;DHT22;10761;48.532;8.026;2023-06-04T13:14:16;30.10;10.50
21207;DHT22;10761;48.532;8.026;2023-06-04T13:16:42;30.20;6.10
21207;DHT22;10761;48.532;8.026;2023-06-04T13:19:08;30.50;2.60
21207;DHT22;10761;48.532;8.026;2023-06-04T13:21:34;30.70;1.00
21207;DHT22;10761;48.532;8.026;2023-06-04T13:24:00;30.00;2.80
21207;DHT22;10761;48.532;8.026;2023-06-04T13:26:25;30.00;12.30
21207;DHT22;10761;48.532;8.026;2023-06-04T13:28:51;30.00;7.90
21207;DHT22;10761;48.532;8.026;2023-06-04T13:31:17;30.00;12.30
21207;DHT22;10761;48.532;8.026;2023-06-04T13:33:43;30.10;9.70
21207;DHT22;10761;48.532;8.026;2023-06-04T13:36:08;29.70;5.50
21207;DHT22;10761;48.532;8.026;2023-06-04T13:38:34;29.40;5.40
21207;DHT22;10761;48.532;8.026;2023-06-04T13:41:00;28.90;2.10
21207;DHT22;10761;48.532;8.026;2023-06-04T13:43:26;28.50;6.50
21207;DHT22;10761;48.532;8.026;2023-06-04T13:45:51;28.50;6.60
21207;DHT22;10761;48.532;8.026;2023-06-04T13:48:17;28.40;5.60
21207;DHT22;10761;48.532;8.026;2023-06-04T13:50:43;28.60;8.90
21207;DHT22;10761;48.532;8.026;2023-06-04T13:53:09;28.60;5.20
21207;DHT22;10761;48.532;8.026;2023-06-04T13:55:35;28.60;4.10
21207;DHT22;10761;48.532;8.026;2023-06-04T13:58:00;28.70;4.70
21207;DHT22;10761;48.532;8.026;2023-06-04T14:00:26;28.90;2.30
21207;DHT22;10761;48.532;8.026;2023-06-04T14:02:52;29.10;3.90
21207;DHT22;10761;48.532;8.026;2023-06-04T14:05:20;29.10;9.90
21207;DHT22;10761;48.532;8.026;2023-06-04T14:07:46;29.10;10.20
21207;DHT22;10761;48.532;8.026;2023-06-04T14:10:12;28.90;1.00
21207;DHT22;10761;48.532;8.026;2023-06-04T14:12:38;28.30;1.00
21207;DHT22;10761;48.532;8.026;2023-06-04T14:15:07;28.00;5.90
21207;DHT22;10761;48.532;8.026;2023-06-04T14:17:33;27.90;4.60
21207;DHT22;10761;48.532;8.026;2023-06-04T14:20:00;27.90;6.90
21207;DHT22;10761;48.532;8.026;2023-06-04T14:22:26;27.80;6.70
21207;DHT22;10761;48.532;8.026;2023-06-04T14:24:52;28.00;6.60
21207;DHT22;10761;48.532;8.026;2023-06-04T14:27:17;28.00;4.20
21207;DHT22;10761;48.532;8.026;2023-06-04T14:29:43;27.90;5.70
21207;DHT22;10761;48.532;8.026;2023-06-04T14:32:08;27.80;2.10
21207;DHT22;10761;48.532;8.026;2023-06-04T14:34:34;27.90;9.50
21207;DHT22;10761;48.532;8.026;2023-06-04T14:37:01;27.90;2.30
21207;DHT22;10761;48.532;8.026;2023-06-04T14:39:30;27.80;1.00
21207;DHT22;10761;48.532;8.026;2023-06-04T14:41:57;27.60;2.60
21207;DHT22;10761;48.532;8.026;2023-06-04T14:44:23;27.30;3.20
21207;DHT22;10761;48.532;8.026;2023-06-04T14:46:49;27.30;5.60
21207;DHT22;10761;48.532;8.026;2023-06-04T14:49:16;27.40;2.30
21207;DHT22;10761;48.532;8.026;2023-06-04T14:51:41;27.40;3.70
21207;DHT22;10761;48.532;8.026;2023-06-04T14:54:07;27.40;2.70
21207;DHT22;10761;48.532;8.026;2023-06-04T14:56:32;27.60;2.70
21207;DHT22;10761;48.532;8.026;2023-06-04T14:58:58;27.70;4.80
21207;DHT22;10761;48.532;8.026;2023-06-04T15:01:23;27.70;1.00
21207;DHT22;10761;48.532;8.026;2023-06-04T15:03:49;27.80;5.90
21207;DHT22;10761;48.532;8.026;2023-06-04T15:06:16;27.70;1.00
21207;DHT22;10761;48.532;8.026;2023-06-04T15:08:41;27.50;1.00
21207;DHT22;10761;48.532;8.026;2023-06-04T15:11:07;27.50;1.00
21207;DHT22;10761;48.532;8.026;2023-06-04T15:13:32;27.40;1.00
21207;DHT22;10761;48.532;8.026;2023-06-04T15:15:58;27.40;1.00
21207;DHT22;10761;48.532;8.026;2023-06-04T15:18:24;27.40;1.00
21207;DHT22;10761;48.532;8.026;2023-06-04T15:20:49;27.50;5.60
21207;DHT22;10761;48.532;8.026;2023-06-04T15:23:15;27.50;1.00
21207;DHT22;10761;48.532;8.026;2023-06-04T15:25:43;27.50;1.00
21207;DHT22;10761;48.532;8.026;2023-06-04T15:28:09;27.40;1.00
21207;DHT22;10761;48.532;8.026;2023-06-04T15:30:34;27.40;1.00
21207;DHT22;10761;48.532;8.026;2023-06-04T15:33:00;27.50;1.00
21207;DHT22;10761;48.532;8.026;2023-06-04T15:35:27;27.60;1.00
21207;DHT22;10761;48.532;8.026;2023-06-04T15:37:53;27.40;1.00
21207;DHT22;10761;48.532;8.026;2023-06-04T15:40:19;27.30;1.00